Time;durP1;ratioP1;P1;durP2;ratioP2;P2;SDS_P1;SDS_P2;PMS_P1;PMS_P2;Temp;Humidity;BMP_temperature;BMP_pressure;BME280_temperature;BME280_humidity;BME280_pressure;Samples;Min_cycle;Max_cycle;Signal;HPM_P1;HPM_P2
2022/09/03 00:02:51;;;;;;;4.30;1.70;;;21.30;42.50;;;;;;5095084;28;20027;-67
2022/09/03 00:05:36;;;;;;;5.13;1.60;;;21.30;42.50;;;;;;5081244;28;20028;-67
2022/09/03 00:08:19;;;;;;;3.95;1.38;;;21.20;42.60;;;;;;5092415;28;20115;-67
2022/09/03 00:10:58;;;;;;;4.60;1.90;;;21.20;42.60;;;;;;5095300;28;20038;-67
2022/09/03 00:13:35;;;;;;;3.47;1.40;;;21.10;42.60;;;;;;5054631;28;20111;-67
2022/09/03 00:16:04;;;;;;;3.70;1.48;;;21.10;43.30;;;;;;5072969;28;20157;-67
2022/09/03 00:18:33;;;;;;;4.65;1.58;;;21.10;42.80;;;;;;5081750;28;20035;-67
2022/09/03 00:21:11;;;;;;;4.97;1.50;;;21.10;42.90;;;;;;5094063;28;20392;-67
2022/09/03 00:23:43;;;;;;;4.20;1.50;;;21.10;42.90;;;;;;5059807;28;20314;-67
2022/09/03 00:26:11;;;;;;;5.10;1.80;;;21.00;42.80;;;;;;5094600;28;20089;-67
2022/09/03 00:29:15;;;;;;;4.70;1.60;;;21.00;42.90;;;;;;5070212;28;20115;-67
2022/09/03 00:31:52;;;;;;;3.72;1.50;;;21.00;42.90;;;;;;5083683;28;20027;-67
2022/09/03 00:34:35;;;;;;;3.70;1.55;;;21.00;43.00;;;;;;5061456;28;20056;-67
2022/09/03 00:37:02;;;;;;;4.50;1.50;;;21.00;43.10;;;;;;5073346;28;20150;-67
2022/09/03 00:39:27;;;;;;;4.22;1.67;;;20.90;43.10;;;;;;5092889;28;20032;-67
2022/09/03 00:42:17;;;;;;;3.38;1.60;;;20.90;43.20;;;;;;5078781;28;20029;-67
2022/09/03 00:44:59;;;;;;;5.25;1.67;;;20.90;43.20;;;;;;5074608;28;20400;-67
2022/09/03 00:47:48;;;;;;;5.07;1.70;;;20.90;43.30;;;;;;5088979;28;20333;-68
2022/09/03 00:50:35;;;;;;;4.30;1.55;;;20.90;43.40;;;;;;5076340;28;20441;-67
2022/09/03 00:53:27;;;;;;;3.35;1.33;;;20.90;43.50;;;;;;5066330;28;20108;-67
2022/09/03 00:56:07;;;;;;;3.78;1.70;;;20.80;43.40;;;;;;5073609;28;20032;-67
2022/09/03 00:58:32;;;;;;;5.88;1.80;;;20.80;43.50;;;;;;5092326;28;20032;-67
2022/09/03 01:01:04;;;;;;;4.15;1.60;;;20.80;43.60;;;;;;5075377;28;20368;-67
2022/09/03 01:03:53;;;;;;;5.63;1.70;;;20.70;43.60;;;;;;5093724;28;20349;-67
2022/09/03 01:06:29;;;;;;;4.55;1.65;;;20.80;43.70;;;;;;5082415;28;20109;-67
2022/09/03 01:09:21;;;;;;;3.70;1.50;;;20.80;43.80;;;;;;5088626;28;20028;-67
2022/09/03 01:11:54;;;;;;;3.75;1.55;;;20.70;44.20;;;;;;5093003;28;20031;-67
2022/09/03 01:14:47;;;;;;;5.38;1.77;;;20.70;43.90;;;;;;5073867;28;20143;-67
2022/09/03 01:17:35;;;;;;;5.13;1.70;;;20.70;43.90;;;;;;5062799;28;20443;-67
2022/09/03 01:20:31;;;;;;;3.45;1.60;;;20.60;44.10;;;;;;5076396;28;20089;-67
2022/09/03 01:23:12;;;;;;;2.60;1.33;;;20.60;44.10;;;;;;5083370;28;20036;-67
2022/09/03 01:25:53;;;;;;;3.03;1.40;;;20.60;44.30;;;;;;5083576;28;20578;-67
2022/09/03 01:28:54;;;;;;;3.85;1.70;;;20.60;44.40;;;;;;5089496;28;20111;-67
2022/09/03 01:31:39;;;;;;;4.60;1.77;;;20.50;44.40;;;;;;5098277;28;20032;-67
2022/09/03 01:34:48;;;;;;;2.67;1.50;;;20.50;44.40;;;;;;5079833;28;20281;-67
2022/09/03 01:37:32;;;;;;;4.10;1.50;;;20.50;44.50;;;;;;5066963;28;20366;-67
2022/09/03 01:40:23;;;;;;;4.47;1.60;;;20.40;44.50;;;;;;5076739;28;20040;-67
2022/09/03 01:43:16;;;;;;;4.63;1.80;;;20.50;44.60;;;;;;5085799;28;20047;-67
2022/09/03 01:46:07;;;;;;;3.20;1.40;;;20.40;44.60;;;;;;5079199;28;20047;-67
2022/09/03 01:48:42;;;;;;;4.32;1.50;;;20.40;44.70;;;;;;5094167;28;20028;-67
2022/09/03 01:51:29;;;;;;;3.78;1.60;;;20.40;44.70;;;;;;5062971;28;20052;-67
2022/09/03 01:54:42;;;;;;;3.63;1.70;;;20.30;44.70;;;;;;5075869;28;20076;-67
2022/09/03 01:57:41;;;;;;;5.00;1.58;;;20.30;44.80;;;;;;5082477;28;20038;-67
2022/09/03 02:00:16;;;;;;;7.65;1.67;;;20.30;44.80;;;;;;5096787;28;20132;-67
2022/09/03 02:02:46;;;;;;;3.88;1.45;;;20.30;44.90;;;;;;5096524;28;20449;-67
2022/09/03 02:05:23;;;;;;;3.97;1.77;;;20.30;44.90;;;;;;5087084;28;20016;-67
2022/09/03 02:07:56;;;;;;;3.25;1.48;;;20.30;45.00;;;;;;5094914;28;20052;-67
2022/09/03 02:10:30;;;;;;;4.40;1.92;;;20.30;45.00;;;;;;5097397;28;20109;-68
2022/09/03 02:13:03;;;;;;;4.60;1.65;;;20.20;45.00;;;;;;5061096;28;20407;-67
2022/09/03 02:15:31;;;;;;;4.25;1.73;;;20.20;45.10;;;;;;5077943;28;20476;-67
2022/09/03 02:18:00;;;;;;;4.20;1.90;;;20.20;45.20;;;;;;5089283;28;20024;-68
2022/09/03 02:20:28;;;;;;;8.65;2.55;;;20.10;45.20;;;;;;5077776;28;20083;-67
2022/09/03 02:22:56;;;;;;;6.60;2.30;;;20.20;45.30;;;;;;5075856;28;20414;-68
2022/09/03 02:25:31;;;;;;;5.35;1.92;;;20.10;45.30;;;;;;5095799;28;20028;-68
2022/09/03 02:27:57;;;;;;;3.92;1.70;;;20.10;45.30;;;;;;5092619;28;20028;-67
2022/09/03 02:30:23;;;;;;;4.15;1.63;;;20.10;45.30;;;;;;5095382;28;20035;-68
2022/09/03 02:32:49;;;;;;;4.82;1.75;;;20.10;45.40;;;;;;5077889;28;20402;-67
2022/09/03 02:35:15;;;;;;;3.72;1.58;;;20.10;45.50;;;;;;5094447;28;20088;-67
2022/09/03 02:37:40;;;;;;;3.67;1.45;;;20.00;45.50;;;;;;5049297;28;20031;-68
2022/09/03 02:40:08;;;;;;;4.13;1.85;;;20.00;45.50;;;;;;5093702;28;20020;-67
2022/09/03 02:42:35;;;;;;;3.92;1.73;;;20.00;45.60;;;;;;5072839;28;20059;-68
2022/09/03 02:45:19;;;;;;;3.88;1.77;;;19.90;45.50;;;;;;5094142;28;20445;-68
2022/09/03 02:47:49;;;;;;;5.00;1.52;;;20.00;45.60;;;;;;5056103;28;20029;-68
2022/09/03 02:50:14;;;;;;;2.85;1.42;;;19.90;45.60;;;;;;5087655;28;20445;-68
2022/09/03 02:52:40;;;;;;;4.70;1.60;;;19.90;45.60;;;;;;5093540;28;20102;-68
2022/09/03 02:55:06;;;;;;;4.82;1.60;;;19.90;45.70;;;;;;5077537;28;20042;-68
2022/09/03 02:57:31;;;;;;;4.43;2.00;;;19.90;45.70;;;;;;5076427;28;20116;-67
2022/09/03 02:59:57;;;;;;;5.28;1.83;;;19.90;45.70;;;;;;5095332;28;20032;-68
2022/09/03 03:02:22;;;;;;;4.68;1.77;;;19.90;45.80;;;;;;5069614;28;20037;-67
2022/09/03 03:04:48;;;;;;;6.43;2.08;;;19.90;45.80;;;;;;5077481;28;20079;-67
2022/09/03 03:07:14;;;;;;;4.88;1.80;;;19.80;45.80;;;;;;5075427;28;20028;-68
2022/09/03 03:09:39;;;;;;;4.05;1.77;;;19.80;45.90;;;;;;5079955;28;20361;-68
2022/09/03 03:12:06;;;;;;;3.65;1.60;;;19.80;46.00;;;;;;5092765;28;20034;-68
2022/09/03 03:14:31;;;;;;;3.83;1.40;;;19.80;46.00;;;;;;5056971;28;1050489;-68
2022/09/03 03:16:57;;;;;;;4.93;1.60;;;19.80;46.00;;;;;;5069971;28;20068;-67
2022/09/03 03:19:22;;;;;;;2.45;1.45;;;19.70;45.90;;;;;;5095301;28;20043;-68
2022/09/03 03:21:48;;;;;;;3.95;1.60;;;19.70;45.90;;;;;;5093867;28;20028;-67
2022/09/03 03:24:13;;;;;;;2.97;1.45;;;19.70;46.00;;;;;;5077457;28;20051;-67
2022/09/03 03:26:40;;;;;;;3.47;1.50;;;19.70;46.00;;;;;;5094680;28;20058;-68
2022/09/03 03:29:05;;;;;;;4.50;1.67;;;19.60;46.00;;;;;;5093061;28;20035;-67
2022/09/03 03:31:31;;;;;;;5.40;2.03;;;19.60;46.00;;;;;;5058781;28;20031;-67
2022/09/03 03:33:59;;;;;;;5.10;1.88;;;19.60;46.10;;;;;;5094752;28;20035;-67
2022/09/03 03:36:27;;;;;;;4.63;1.73;;;19.60;46.10;;;;;;5076310;28;20031;-67
2022/09/03 03:38:54;;;;;;;3.63;1.70;;;19.60;46.20;;;;;;5077073;28;20493;-68
2022/09/03 03:41:26;;;;;;;4.88;1.60;;;19.60;46.20;;;;;;5075943;28;20063;-68
2022/09/03 03:43:56;;;;;;;4.43;1.52;;;19.60;46.40;;;;;;5082747;28;20460;-67
2022/09/03 03:46:23;;;;;;;4.43;1.67;;;19.50;46.40;;;;;;5086288;28;20417;-67
2022/09/03 03:48:51;;;;;;;4.25;1.80;;;19.50;46.40;;;;;;5079510;28;20119;-67
2022/09/03 03:51:17;;;;;;;5.40;1.92;;;19.50;46.40;;;;;;5093679;28;20031;-68
2022/09/03 03:53:43;;;;;;;4.47;1.52;;;19.50;46.40;;;;;;5081232;28;20082;-67
2022/09/03 03:56:12;;;;;;;3.78;1.58;;;19.50;46.50;;;;;;5091155;28;20449;-67
2022/09/03 03:58:42;;;;;;;3.95;1.40;;;19.40;46.50;;;;;;5094656;28;20028;-67
2022/09/03 04:01:20;;;;;;;4.82;1.75;;;19.40;46.60;;;;;;5071063;28;20369;-67
2022/09/03 04:03:46;;;;;;;4.53;1.85;;;19.40;46.60;;;;;;5088241;28;20455;-68
2022/09/03 04:06:15;;;;;;;3.42;1.50;;;19.40;46.60;;;;;;5076342;28;20020;-67
2022/09/03 04:08:42;;;;;;;5.03;1.38;;;19.40;46.60;;;;;;5087084;28;20028;-67
2022/09/03 04:11:13;;;;;;;3.38;1.50;;;19.40;46.70;;;;;;5092701;28;20448;-68
2022/09/03 04:13:40;;;;;;;3.47;1.37;;;19.40;46.70;;;;;;5072039;28;20028;-68
2022/09/03 04:16:12;;;;;;;2.97;1.52;;;19.30;46.70;;;;;;5067950;28;20040;-67
2022/09/03 04:18:38;;;;;;;4.80;1.65;;;19.30;46.80;;;;;;5087257;28;20334;-67
2022/09/03 04:21:05;;;;;;;4.47;1.73;;;19.30;46.80;;;;;;5075507;28;20058;-67
2022/09/03 04:23:35;;;;;;;2.97;1.40;;;19.30;46.80;;;;;;5079944;28;20024;-68
2022/09/03 04:26:01;;;;;;;5.47;1.75;;;19.30;46.90;;;;;;5077106;28;20119;-67
2022/09/03 04:28:27;;;;;;;3.40;1.50;;;19.20;46.90;;;;;;5090814;28;20162;-67
2022/09/03 04:30:53;;;;;;;3.20;1.33;;;19.20;46.90;;;;;;5092578;28;20028;-67
2022/09/03 04:33:19;;;;;;;4.93;1.80;;;19.20;47.00;;;;;;5081694;28;20044;-67
2022/09/03 04:35:45;;;;;;;4.50;1.58;;;19.20;47.10;;;;;;5076722;28;20111;-67
2022/09/03 04:38:11;;;;;;;4.43;1.48;;;19.20;47.10;;;;;;5071703;28;20122;-67
2022/09/03 04:40:36;;;;;;;4.38;1.65;;;19.20;47.20;;;;;;5085526;28;20048;-68
2022/09/03 04:43:03;;;;;;;3.53;1.52;;;19.10;47.10;;;;;;5063018;28;20111;-68
2022/09/03 04:45:29;;;;;;;5.03;1.70;;;19.10;47.10;;;;;;5059438;28;20028;-67
2022/09/03 04:48:02;;;;;;;4.93;1.50;;;19.10;47.10;;;;;;5086899;28;20028;-67
2022/09/03 04:50:30;;;;;;;3.78;1.77;;;19.10;47.10;;;;;;5094195;28;20070;-67
2022/09/03 04:53:03;;;;;;;4.20;1.38;;;19.10;47.20;;;;;;5069567;28;20028;-67
2022/09/03 04:55:36;;;;;;;3.13;1.33;;;19.10;47.20;;;;;;5073276;28;20158;-67
2022/09/03 04:58:02;;;;;;;4.00;1.60;;;19.00;47.20;;;;;;5063750;28;20024;-67
2022/09/03 05:00:28;;;;;;;3.22;1.42;;;19.00;47.20;;;;;;5094313;28;20430;-67
2022/09/03 05:02:54;;;;;;;5.07;2.10;;;19.00;47.20;;;;;;5076218;28;20028;-68
2022/09/03 05:05:19;;;;;;;4.35;1.95;;;19.00;47.20;;;;;;5074698;28;20074;-67
2022/09/03 05:07:45;;;;;;;4.93;1.90;;;19.00;47.80;;;;;;5091666;28;20085;-67
2022/09/03 05:10:19;;;;;;;3.33;1.42;;;19.00;47.20;;;;;;5066547;28;20077;-68
2022/09/03 05:12:46;;;;;;;4.15;1.63;;;19.00;47.20;;;;;;5059775;28;20042;-67
2022/09/03 05:15:11;;;;;;;4.78;1.70;;;18.90;47.20;;;;;;5093905;28;20352;-67
2022/09/03 05:17:37;;;;;;;3.67;1.45;;;18.90;47.20;;;;;;5060238;28;20040;-67
2022/09/03 05:20:06;;;;;;;4.90;1.60;;;18.90;47.20;;;;;;5083869;28;20032;-68
2022/09/03 05:22:33;;;;;;;3.90;1.60;;;18.90;47.20;;;;;;5076444;28;20027;-67
2022/09/03 05:24:59;;;;;;;2.97;1.30;;;18.90;47.20;;;;;;5093488;28;20398;-67
2022/09/03 05:27:24;;;;;;;3.75;1.48;;;18.90;47.30;;;;;;5067683;28;20024;-68
2022/09/03 05:29:50;;;;;;;2.90;1.20;;;18.90;47.30;;;;;;5088943;28;20363;-68
2022/09/03 05:32:16;;;;;;;3.17;1.38;;;18.90;47.30;;;;;;5092334;28;20028;-68
2022/09/03 05:34:42;;;;;;;4.65;1.50;;;18.90;47.30;;;;;;5093514;28;20337;-68
2022/09/03 05:37:08;;;;;;;4.05;1.35;;;18.90;47.30;;;;;;5072813;28;20032;-68
2022/09/03 05:39:34;;;;;;;4.43;1.77;;;18.90;47.40;;;;;;5068224;28;20454;-66
2022/09/03 05:41:59;;;;;;;3.10;1.42;;;18.90;47.40;;;;;;5060691;28;20115;-67
2022/09/03 05:44:25;;;;;;;4.85;1.63;;;18.90;47.50;;;;;;5065835;28;20046;-68
2022/09/03 05:46:52;;;;;;;3.58;1.40;;;18.90;47.50;;;;;;5065618;28;20028;-68
2022/09/03 05:49:17;;;;;;;4.57;1.40;;;19.00;47.50;;;;;;5087073;28;20469;-68
2022/09/03 05:51:43;;;;;;;2.95;1.60;;;19.00;47.50;;;;;;5070962;28;20115;-68
2022/09/03 05:54:09;;;;;;;2.92;1.40;;;19.00;48.10;;;;;;5073524;28;20036;-66
2022/09/03 05:56:38;;;;;;;3.10;1.42;;;19.00;47.50;;;;;;5081887;28;20494;-68
2022/09/03 05:59:08;;;;;;;3.15;1.42;;;19.00;47.50;;;;;;5088693;28;20369;-69
2022/09/03 06:01:36;;;;;;;3.58;1.42;;;19.00;47.50;;;;;;5069244;28;20024;-70
2022/09/03 06:04:07;;;;;;;3.63;1.33;;;19.00;47.50;;;;;;5067492;28;20032;-68
2022/09/03 06:06:34;;;;;;;;;;;19.10;47.50;;;;;;5071969;28;20032;-68
2022/09/03 06:09:03;;;;;;;4.72;1.40;;;19.10;47.40;;;;;;5095478;28;20008;-68
2022/09/03 06:11:31;;;;;;;3.53;1.58;;;19.20;47.40;;;;;;5090668;28;20024;-67
2022/09/03 06:14:03;;;;;;;3.20;1.60;;;19.20;47.40;;;;;;5086729;28;20047;-68
2022/09/03 06:16:30;;;;;;;3.78;1.50;;;19.30;47.40;;;;;;5066313;28;20044;-68
2022/09/03 06:18:56;;;;;;;4.03;1.80;;;19.50;47.00;;;;;;5091882;28;20028;-68
2022/09/03 06:21:22;;;;;;;4.10;1.50;;;20.00;46.50;;;;;;5090897;28;20047;-68
2022/09/03 06:23:52;;;;;;;2.95;1.55;;;20.40;45.80;;;;;;5097069;28;20031;-69
2022/09/03 06:26:19;;;;;;;4.68;1.42;;;21.00;45.00;;;;;;5076986;28;20028;-69
2022/09/03 06:28:47;;;;;;;4.30;1.70;;;21.70;43.90;;;;;;5078968;28;20098;-68
2022/09/03 06:31:18;;;;;;;3.72;1.50;;;22.30;43.10;;;;;;5097438;28;20020;-69
2022/09/03 06:33:45;;;;;;;5.13;1.60;;;22.80;42.30;;;;;;5079606;28;20036;-69
2022/09/03 06:36:14;;;;;;;3.47;1.52;;;23.30;41.70;;;;;;5097494;28;20032;-69
2022/09/03 06:38:41;;;;;;;3.85;1.58;;;23.50;41.20;;;;;;5097472;28;20040;-68
2022/09/03 06:41:13;;;;;;;3.20;1.35;;;23.70;40.80;;;;;;5096336;28;20441;-69
2022/09/03 06:43:41;;;;;;;3.80;1.48;;;23.60;40.60;;;;;;5079378;28;20115;-69
2022/09/03 06:46:15;;;;;;;4.07;1.33;;;23.50;40.90;;;;;;5079971;28;20085;-68
2022/09/03 06:48:41;;;;;;;4.47;1.40;;;23.30;41.20;;;;;;5097354;28;20032;-68
2022/09/03 06:51:10;;;;;;;3.00;1.50;;;23.10;41.50;;;;;;5070938;28;20024;-68
2022/09/03 06:53:38;;;;;;;3.20;1.55;;;22.90;41.70;;;;;;5097063;28;20032;-69
2022/09/03 06:56:12;;;;;;;4.63;1.50;;;22.70;41.90;;;;;;5097212;28;20028;-69
2022/09/03 06:58:43;;;;;;;6.72;1.70;;;22.60;42.10;;;;;;5097372;28;20028;-68
2022/09/03 07:01:18;;;;;;;3.38;1.63;;;22.50;42.30;;;;;;5076430;28;20158;-69
2022/09/03 07:03:44;;;;;;;4.97;1.33;;;22.40;42.30;;;;;;5096854;28;20029;-69
2022/09/03 07:06:16;;;;;;;5.50;1.75;;;22.40;42.40;;;;;;5062267;28;20097;-68
2022/09/03 07:08:43;;;;;;;4.45;1.73;;;22.40;42.50;;;;;;5097095;28;20031;-69
2022/09/03 07:11:21;;;;;;;4.13;1.70;;;22.40;42.60;;;;;;5096864;28;20123;-68
2022/09/03 07:13:50;;;;;;;4.97;1.77;;;22.40;42.50;;;;;;5096920;28;20099;-69
2022/09/03 07:16:17;;;;;;;4.22;1.80;;;22.40;42.60;;;;;;5095479;28;20105;-69
2022/09/03 07:18:44;;;;;;;3.58;1.50;;;22.50;42.60;;;;;;5096397;28;20062;-69
2022/09/03 07:21:12;;;;;;;4.95;1.77;;;22.50;42.60;;;;;;5094790;28;20044;-69
2022/09/03 07:23:39;;;;;;;3.85;1.30;;;22.60;42.50;;;;;;5096773;28;20340;-69
2022/09/03 07:26:08;;;;;;;5.28;1.70;;;22.60;42.40;;;;;;5079138;28;20024;-69
2022/09/03 07:28:35;;;;;;;5.47;1.77;;;22.70;42.30;;;;;;5095865;28;20107;-69
2022/09/03 07:31:05;;;;;;;3.80;1.63;;;22.80;42.30;;;;;;5078598;28;20039;-69
2022/09/03 07:33:32;;;;;;;5.65;1.88;;;22.90;42.30;;;;;;5096361;28;20532;-69
2022/09/03 07:36:07;;;;;;;4.47;2.10;;;23.10;42.10;;;;;;5078875;28;20466;-70
2022/09/03 07:38:33;;;;;;;4.80;2.10;;;23.20;42.10;;;;;;5082101;28;20020;-69
2022/09/03 07:41:01;;;;;;;4.40;1.65;;;23.40;41.90;;;;;;5078439;28;20131;-69
2022/09/03 07:43:34;;;;;;;4.15;1.67;;;23.50;41.80;;;;;;5082240;28;20024;-68
2022/09/03 07:46:00;;;;;;;5.35;1.60;;;23.60;41.60;;;;;;5068434;28;20058;-69
2022/09/03 07:48:26;;;;;;;2.83;1.33;;;23.70;42.00;;;;;;5096466;28;20020;-69
2022/09/03 07:50:52;;;;;;;3.78;1.50;;;23.90;41.20;;;;;;5078385;28;20027;-69
2022/09/03 07:53:19;;;;;;;4.18;1.88;;;24.00;41.00;;;;;;5095923;28;20025;-69
2022/09/03 07:55:46;;;;;;;4.15;1.58;;;24.10;40.70;;;;;;5077916;28;20115;-69
2022/09/03 07:58:13;;;;;;;6.07;1.90;;;24.30;40.50;;;;;;5060589;28;20023;-69
2022/09/03 08:00:39;;;;;;;4.47;1.60;;;24.40;40.40;;;;;;5096164;28;20028;-69
2022/09/03 08:03:07;;;;;;;4.03;1.55;;;24.50;40.20;;;;;;5095886;28;20111;-69
2022/09/03 08:05:37;;;;;;;4.40;1.48;;;24.70;40.20;;;;;;5096413;28;20103;-69
2022/09/03 08:08:04;;;;;;;13.68;1.70;;;24.80;40.00;;;;;;5078084;28;20024;-69
2022/09/03 08:10:33;;;;;;;6.53;1.60;;;25.00;39.90;;;;;;5095947;28;20356;-69
2022/09/03 08:12:59;;;;;;;5.50;1.85;;;25.20;39.70;;;;;;5077035;28;20473;-69
2022/09/03 08:15:25;;;;;;;6.70;1.90;;;25.30;39.50;;;;;;5096061;28;20052;-69
2022/09/03 08:17:51;;;;;;;4.95;1.40;;;25.40;39.30;;;;;;5095731;28;20086;-69
2022/09/03 08:20:17;;;;;;;5.22;1.48;;;25.50;39.20;;;;;;5077940;28;20028;-69
2022/09/03 08:22:43;;;;;;;8.20;2.10;;;25.60;39.10;;;;;;5094680;28;20032;-69
2022/09/03 08:25:09;;;;;;;4.50;1.52;;;25.70;38.90;;;;;;5077039;28;20429;-69
2022/09/03 08:27:35;;;;;;;3.05;1.55;;;25.80;38.70;;;;;;5076815;28;20053;-69
2022/09/03 08:30:02;;;;;;;2.75;1.23;;;26.00;38.70;;;;;;5093873;28;20032;-69
2022/09/03 08:32:28;;;;;;;4.07;1.48;;;26.10;38.60;;;;;;5077112;28;20125;-69
2022/09/03 08:34:54;;;;;;;3.97;1.40;;;26.20;38.30;;;;;;5077177;28;20416;-69
2022/09/03 08:37:19;;;;;;;4.35;1.30;;;26.30;38.00;;;;;;5094510;28;20349;-69
2022/09/03 08:39:45;;;;;;;6.43;1.33;;;26.30;37.80;;;;;;5076975;28;20032;-69
2022/09/03 08:42:26;;;;;;;4.32;1.30;;;26.40;37.80;;;;;;5073386;28;20033;-69
2022/09/03 08:44:55;;;;;;;3.83;1.52;;;26.50;37.70;;;;;;5075963;28;20028;-69
2022/09/03 08:47:50;;;;;;;4.85;1.27;;;26.60;37.50;;;;;;5094828;28;20039;-69
2022/09/03 08:50:25;;;;;;;4.03;1.30;;;26.80;37.50;;;;;;5076982;28;20020;-69
2022/09/03 08:53:14;;;;;;;2.67;1.35;;;26.90;37.30;;;;;;5093696;28;20441;-69
2022/09/03 08:56:02;;;;;;;2.92;1.35;;;26.90;37.00;;;;;;5045215;28;20052;-69
2022/09/03 08:58:32;;;;;;;3.13;1.20;;;27.00;37.00;;;;;;5082434;28;20070;-69
2022/09/03 09:01:16;;;;;;;4.43;1.65;;;27.10;37.00;;;;;;5076889;28;20424;-69
2022/09/03 09:04:04;;;;;;;3.53;1.42;;;27.20;36.80;;;;;;5059789;28;20338;-69
2022/09/03 09:06:55;;;;;;;2.85;1.30;;;27.30;36.60;;;;;;5076688;28;20020;-69
2022/09/03 09:09:50;;;;;;;3.50;1.40;;;27.40;36.30;;;;;;5094729;28;20455;-69
2022/09/03 09:12:31;;;;;;;4.63;1.35;;;27.50;36.30;;;;;;5076601;28;20086;-69
2022/09/03 09:15:09;;;;;;;4.35;1.38;;;27.60;36.40;;;;;;5094465;28;20080;-69
2022/09/03 09:17:38;;;;;;;3.67;1.40;;;27.60;36.30;;;;;;5059920;28;20060;-69
2022/09/03 09:20:08;;;;;;;6.30;1.52;;;27.70;36.20;;;;;;5094376;28;20028;-69
2022/09/03 09:22:42;;;;;;;6.13;1.35;;;27.80;36.10;;;;;;5094466;28;20117;-70
2022/09/03 09:25:20;;;;;;;2.90;1.10;;;27.90;36.00;;;;;;5094462;28;20093;-69
2022/09/03 09:28:00;;;;;;;3.50;1.38;;;28.00;35.90;;;;;;5075366;28;20028;-70
2022/09/03 09:30:28;;;;;;;4.30;1.65;;;28.10;35.80;;;;;;5076803;28;20017;-70
2022/09/03 09:32:54;;;;;;;4.07;1.27;;;28.20;35.80;;;;;;5066279;28;20028;-69
2022/09/03 09:35:21;;;;;;;3.83;1.45;;;28.20;35.60;;;;;;5078699;28;20036;-69
2022/09/03 09:37:59;;;;;;;3.95;1.25;;;28.20;35.50;;;;;;5074030;28;20093;-69
2022/09/03 09:40:34;;;;;;;5.60;1.60;;;28.30;35.40;;;;;;5066221;28;20117;-70
2022/09/03 09:43:18;;;;;;;2.47;1.30;;;28.40;35.30;;;;;;5083986;28;20457;-69
2022/09/03 09:45:47;;;;;;;3.45;1.50;;;28.50;35.20;;;;;;5091427;28;20353;-69
2022/09/03 09:48:16;;;;;;;4.15;1.45;;;28.50;35.10;;;;;;5079858;28;20024;-69
2022/09/03 09:50:42;;;;;;;3.08;1.25;;;28.60;35.20;;;;;;5059183;28;20070;-70
2022/09/03 09:53:16;;;;;;;6.35;1.63;;;28.60;35.10;;;;;;5084098;28;20160;-70
2022/09/03 09:55:56;;;;;;;7.70;1.30;;;28.70;35.00;;;;;;5096639;28;20488;-69
2022/09/03 09:58:26;;;;;;;2.50;1.20;;;28.80;35.00;;;;;;5078011;28;20353;-70
2022/09/03 10:01:12;;;;;;;2.92;1.10;;;28.80;34.90;;;;;;5088998;28;20416;-69
2022/09/03 10:03:47;;;;;;;4.47;1.73;;;28.90;34.80;;;;;;5088843;28;20032;-69
2022/09/03 10:09:17;;;;;;;3.88;1.10;;;28.90;35.20;;;;;;5087864;28;20020;-69
2022/09/03 10:11:50;;;;;;;2.85;1.38;;;29.00;34.50;;;;;;5085967;28;20024;-69
2022/09/03 10:14:41;;;;;;;3.70;1.50;;;29.10;34.50;;;;;;5095765;28;20436;-69
2022/09/03 10:17:27;;;;;;;3.42;1.30;;;29.10;34.30;;;;;;5079205;28;20032;-70
2022/09/03 10:20:26;;;;;;;6.38;1.60;;;29.10;34.10;;;;;;5072164;28;20035;-70
2022/09/03 10:23:01;;;;;;;3.33;1.30;;;29.20;34.20;;;;;;5094438;28;20066;-70
2022/09/03 10:25:55;;;;;;;2.50;1.38;;;29.30;34.40;;;;;;5083348;28;20338;-70
2022/09/03 10:28:24;;;;;;;4.38;1.52;;;29.40;34.30;;;;;;5088086;28;20466;-69
2022/09/03 10:31:22;;;;;;;3.90;1.40;;;29.40;34.20;;;;;;5094621;28;20031;-69
2022/09/03 10:33:52;;;;;;;3.03;1.25;;;29.50;34.20;;;;;;5097504;28;20016;-69
2022/09/03 10:36:47;;;;;;;6.57;1.20;;;29.50;34.20;;;;;;5094251;28;20437;-70
2022/09/03 10:39:37;;;;;;;1.55;0.90;;;29.60;34.70;;;;;;5077050;28;20035;-69
2022/09/03 10:42:45;;;;;;;2.35;1.20;;;29.70;34.00;;;;;;4976288;28;20079;-69
2022/09/03 10:45:31;;;;;;;3.83;1.27;;;29.70;33.90;;;;;;4976595;28;20043;-69
2022/09/03 10:48:24;;;;;;;3.92;1.45;;;29.80;33.90;;;;;;4976558;28;20030;-70
2022/09/03 10:51:12;;;;;;;4.18;1.30;;;29.80;34.40;;;;;;4974867;28;20329;-71
2022/09/03 10:53:45;;;;;;;3.25;1.30;;;29.80;33.60;;;;;;4960150;28;20035;-69
2022/09/03 10:56:16;;;;;;;4.38;1.42;;;29.80;33.60;;;;;;4967665;28;20037;-69
2022/09/03 10:59:19;;;;;;;4.45;1.70;;;29.80;33.40;;;;;;4978024;28;20078;-69
2022/09/03 11:02:20;;;;;;;5.07;1.70;;;29.90;33.60;;;;;;4971949;28;20042;-68
2022/09/03 11:04:53;;;;;;;2.70;1.30;;;29.90;33.40;;;;;;4976878;28;20117;-68
2022/09/03 11:07:29;;;;;;;2.55;1.27;;;30.00;33.60;;;;;;4977015;28;20432;-69
2022/09/03 11:10:17;;;;;;;3.33;1.25;;;30.00;33.50;;;;;;4976200;28;20117;-69
2022/09/03 11:12:55;;;;;;;5.50;1.27;;;30.00;33.50;;;;;;4976690;28;20050;-69
2022/09/03 11:15:38;;;;;;;2.67;1.23;;;30.10;33.40;;;;;;4982945;28;20058;-69
2022/09/03 11:18:22;;;;;;;4.38;1.63;;;30.10;33.20;;;;;;4982297;28;20058;-68
2022/09/03 11:20:53;;;;;;;2.58;1.45;;;30.10;33.30;;;;;;5069740;28;20106;-68
2022/09/03 11:23:22;;;;;;;4.03;1.25;;;30.10;33.20;;;;;;5072796;28;20132;-68
2022/09/03 11:25:58;;;;;;;3.88;1.40;;;30.10;33.10;;;;;;5091345;28;20078;-68
2022/09/03 11:28:44;;;;;;;4.68;1.40;;;30.10;33.10;;;;;;5095685;28;20102;-68
2022/09/03 11:31:46;;;;;;;4.07;1.42;;;30.10;33.10;;;;;;5066194;28;20445;-68
2022/09/03 11:34:31;;;;;;;2.97;1.30;;;30.10;33.00;;;;;;5044272;28;20052;-68
2022/09/03 11:37:20;;;;;;;3.42;1.20;;;30.10;32.90;;;;;;5043790;28;20131;-68
2022/09/03 11:40:18;;;;;;;3.53;1.40;;;30.00;33.00;;;;;;5046002;28;20379;-68
2022/09/03 11:42:45;;;;;;;5.35;1.40;;;30.10;32.90;;;;;;5055294;28;20127;-68
2022/09/03 11:45:33;;;;;;;4.10;1.35;;;30.00;32.90;;;;;;5034348;28;20069;-68
2022/09/03 11:48:00;;;;;;;3.10;1.38;;;30.10;32.90;;;;;;5053618;28;20033;-68
2022/09/03 11:50:29;;;;;;;4.10;1.40;;;30.00;33.00;;;;;;5044631;28;20028;-68
2022/09/03 11:53:15;;;;;;;2.50;1.25;;;30.00;33.10;;;;;;5046887;28;20029;-68
2022/09/03 11:56:04;;;;;;;4.18;1.30;;;30.00;33.00;;;;;;5022146;28;20080;-69
2022/09/03 11:58:33;;;;;;;5.70;1.48;;;29.90;33.10;;;;;;5052291;28;20086;-68
2022/09/03 12:01:03;;;;;;;2.85;1.20;;;29.80;33.10;;;;;;5036617;28;20064;-68
2022/09/03 12:03:43;;;;;;;4.85;1.40;;;29.80;33.20;;;;;;5066063;28;20020;-69
2022/09/03 12:06:27;;;;;;;5.78;1.23;;;29.70;33.20;;;;;;5065814;28;20608;-69
2022/09/03 12:09:28;;;;;;;5.60;1.50;;;29.70;33.50;;;;;;5046526;28;20395;-69
2022/09/03 12:12:31;;;;;;;5.60;1.50;;;29.60;33.40;;;;;;5078658;28;20393;-69
2022/09/03 12:15:01;;;;;;;4.25;1.23;;;29.60;33.60;;;;;;5073532;28;20066;-69
2022/09/03 12:17:48;;;;;;;2.63;1.30;;;29.60;33.60;;;;;;5094526;28;20096;-67
2022/09/03 12:20:16;;;;;;;3.05;1.35;;;29.50;33.50;;;;;;5068208;28;20132;-68
2022/09/03 12:22:42;;;;;;;3.28;1.30;;;29.50;33.70;;;;;;5087464;28;20047;-68
2022/09/03 12:25:13;;;;;;;3.72;1.20;;;29.50;33.80;;;;;;5062895;28;20076;-68
2022/09/03 12:27:43;;;;;;;2.28;1.35;;;29.40;33.80;;;;;;5090769;28;20086;-68
2022/09/03 12:30:18;;;;;;;2.20;1.15;;;29.30;33.80;;;;;;5095940;28;20034;-68
2022/09/03 12:32:46;;;;;;;2.95;1.20;;;29.30;33.90;;;;;;5063494;28;20177;-68
2022/09/03 12:35:15;;;;;;;4.68;1.50;;;29.20;33.90;;;;;;5095667;28;20032;-68
2022/09/03 12:37:44;;;;;;;3.42;1.60;;;29.20;34.00;;;;;;5095543;28;20433;-68
2022/09/03 12:40:22;;;;;;;3.75;1.35;;;29.10;33.90;;;;;;5075191;28;20046;-68
2022/09/03 12:42:49;;;;;;;4.93;1.90;;;29.10;34.00;;;;;;5077386;28;20032;-68
2022/09/03 12:45:24;;;;;;;3.25;1.50;;;29.00;34.10;;;;;;5077268;28;20036;-68
2022/09/03 12:47:52;;;;;;;4.78;1.35;;;28.90;34.10;;;;;;5095544;28;20032;-68
2022/09/03 12:50:23;;;;;;;4.95;1.80;;;28.90;34.20;;;;;;5081423;28;20032;-68
2022/09/03 12:52:53;;;;;;;5.75;1.48;;;28.80;34.30;;;;;;5061946;28;20082;-68
2022/09/03 12:55:28;;;;;;;3.03;1.60;;;28.80;34.40;;;;;;5092016;28;20101;-68
2022/09/03 12:58:22;;;;;;;4.85;1.80;;;28.70;34.40;;;;;;5077356;28;20077;-68
2022/09/03 13:00:48;;;;;;;3.15;1.35;;;28.70;34.60;;;;;;5075053;28;20072;-68
2022/09/03 13:03:34;;;;;;;4.13;1.42;;;28.60;34.70;;;;;;5076304;28;20481;-68
2022/09/03 13:06:09;;;;;;;4.05;1.52;;;28.60;34.80;;;;;;5077210;28;20024;-68
2022/09/03 13:08:55;;;;;;;3.60;1.60;;;28.50;34.90;;;;;;5077012;28;20032;-68
2022/09/03 13:11:23;;;;;;;4.22;1.58;;;28.40;35.00;;;;;;5076929;28;20038;-68
2022/09/03 13:14:11;;;;;;;4.50;1.50;;;28.20;35.20;;;;;;5077988;28;20034;-68
2022/09/03 13:16:42;;;;;;;4.20;1.52;;;28.20;36.00;;;;;;5061010;28;20036;-68
2022/09/03 13:19:45;;;;;;;4.03;1.80;;;28.20;35.70;;;;;;5089575;28;20039;-68
2022/09/03 13:22:33;;;;;;;3.50;1.67;;;28.10;35.80;;;;;;5088872;28;20031;-68
2022/09/03 13:25:07;;;;;;;3.58;1.50;;;28.10;35.80;;;;;;5081180;28;20028;-68
2022/09/03 13:27:52;;;;;;;3.65;1.55;;;28.00;35.90;;;;;;5080751;28;20028;-68